Time,TemperatureF,DewpointF,PressureIn,WindDirection,WindDirectionDegrees,WindSpeedMPH,WindSpeedGustMPH,Humidity,HourlyPrecipIn,Conditions,Clouds,dailyrainin,SolarRadiationWatts/m^2,SoftwareType,DateUTC
2013-09-12 00:00:00,56.5,52.0,30.18,ESE,109,0.0,0.0,85,0.00,,,0.00,0,LWC V2.00 B727,2013-09-12 06:00:00,
2013-09-12 00:10:00,56.4,51.9,30.18,ESE,109,0.0,0.0,85,0.00,,,0.00,0,LWC V2.00 B727,2013-09-12 06:10:00,
2013-09-12 00:20:00,56.2,51.7,30.18,ESE,109,0.0,3.0,85,0.00,,,0.00,0,LWC V2.00 B727,2013-09-12 06:20:00,
2013-09-12 00:30:00,56.1,52.0,30.18,ESE,109,0.0,2.0,86,0.00,,,0.00,0,LWC V2.00 B727,2013-09-12 06:30:00,
2013-09-12 00:40:00,56.0,51.9,30.18,ESE,109,0.0,0.0,86,0.00,,,0.00,0,LWC V2.00 B727,2013-09-12 06:40:00,
2013-09-12 00:50:00,56.0,51.9,30.18,ESE,109,0.0,2.0,86,0.00,,,0.00,0,LWC V2.00 B727,2013-09-12 06:50:00,
2013-09-12 01:00:00,56.1,52.6,30.18,SSW,193,1.0,5.0,88,0.00,,,0.00,0,LWC V2.00 B727,2013-09-12 07:00:00,
2013-09-12 01:10:00,56.2,53.0,30.18,SW,235,2.0,6.0,89,0.00,,,0.00,0,LWC V2.00 B727,2013-09-12 07:10:00,
2013-09-12 01:20:00,56.1,52.9,30.18,WSW,241,1.0,4.0,89,0.00,,,0.00,0,LWC V2.00 B727,2013-09-12 07:20:00,
2013-09-12 01:30:00,56.0,52.8,30.18,WSW,243,1.0,1.0,89,0.00,,,0.00,0,LWC V2.00 B727,2013-09-12 07:30:00,
2013-09-12 01:40:00,55.8,52.6,30.18,WSW,244,0.0,0.0,89,0.00,,,0.00,0,LWC V2.00 B727,2013-09-12 07:40:00,
2013-09-12 01:50:00,55.5,52.3,30.19,WSW,244,0.0,0.0,89,0.00,,,0.00,0,LWC V2.00 B727,2013-09-12 07:50:00,
2013-09-12 02:00:00,55.3,52.1,30.19,WSW,244,0.0,0.0,89,0.00,,,0.00,0,LWC V2.00 B727,2013-09-12 08:00:00,
2013-09-12 02:10:00,55.3,52.4,30.19,WSW,244,0.0,0.0,90,0.00,,,0.00,0,LWC V2.00 B727,2013-09-12 08:10:00,
2013-09-12 02:20:00,55.4,52.5,30.19,WSW,244,0.0,0.0,90,0.00,,,0.00,0,LWC V2.00 B727,2013-09-12 08:20:00,
2013-09-12 02:30:00,55.3,52.4,30.19,WSW,244,0.0,0.0,90,0.00,,,0.00,0,LWC V2.00 B727,2013-09-12 08:30:00,
2013-09-12 02:40:00,55.3,52.4,30.19,WSW,244,0.0,0.0,90,0.00,,,0.00,0,LWC V2.00 B727,2013-09-12 08:40:00,
2013-09-12 02:50:00,55.3,52.4,30.19,WSW,244,0.0,0.0,90,0.00,,,0.00,0,LWC V2.00 B727,2013-09-12 08:50:00,
2013-09-12 03:00:00,55.3,52.4,30.18,WSW,244,0.0,0.0,90,0.00,,,0.00,0,LWC V2.00 B727,2013-09-12 09:00:00,
2013-09-12 03:10:00,55.2,52.3,30.18,WSW,244,0.0,0.0,90,0.00,,,0.00,0,LWC V2.00 B727,2013-09-12 09:10:00,
2013-09-12 03:20:00,54.8,51.9,30.19,WSW,244,0.0,0.0,90,0.00,,,0.00,0,LWC V2.00 B727,2013-09-12 09:20:00,
2013-09-12 03:30:00,54.6,51.7,30.19,WSW,244,0.0,0.0,90,0.00,,,0.00,0,LWC V2.00 B727,2013-09-12 09:30:00,
2013-09-12 03:40:00,54.5,51.6,30.18,WSW,244,0.0,0.0,90,0.00,,,0.00,0,LWC V2.00 B727,2013-09-12 09:40:00,
2013-09-12 03:50:00,54.5,51.9,30.18,WSW,244,0.0,0.0,91,0.00,,,0.00,0,LWC V2.00 B727,2013-09-12 09:50:00,
2013-09-12 04:00:00,54.7,52.1,30.18,WSW,244,0.0,2.0,91,0.00,,,0.00,0,LWC V2.00 B727,2013-09-12 10:00:00,
2013-09-12 04:10:00,53.9,51.6,30.18,WSW,244,1.0,4.0,92,0.00,,,0.00,0,LWC V2.00 B727,2013-09-12 10:10:00,
2013-09-12 04:20:00,53.4,49.9,30.18,WSW,244,1.0,4.0,88,0.00,,,0.00,0,LWC V2.00 B727,2013-09-12 10:20:00,
2013-09-12 04:30:00,53.2,49.7,30.18,WSW,244,1.0,1.0,88,0.00,,,0.00,0,LWC V2.00 B727,2013-09-12 10:30:00,
2013-09-12 04:40:00,52.9,48.8,30.18,ESE,112,1.0,5.0,86,0.00,,,0.00,0,LWC V2.00 B727,2013-09-12 10:40:00,
2013-09-12 04:50:00,52.7,48.3,30.18,ESE,102,1.0,5.0,85,0.00,,,0.00,0,LWC V2.00 B727,2013-09-12 10:50:00,
2013-09-12 05:00:00,52.4,47.7,30.19,East,101,2.0,5.0,84,0.00,,,0.00,0,LWC V2.00 B727,2013-09-12 11:00:00,
2013-09-12 05:10:00,52.1,47.4,30.19,ESE,104,3.0,5.0,84,0.00,,,0.00,0,LWC V2.00 B727,2013-09-12 11:10:00,
2013-09-12 05:20:00,52.0,47.9,30.19,ESE,105,0.0,4.0,86,0.00,,,0.00,0,LWC V2.00 B727,2013-09-12 11:20:00,
2013-09-12 05:30:00,51.7,47.3,30.19,ESE,105,1.0,4.0,85,0.00,,,0.00,0,LWC V2.00 B727,2013-09-12 11:30:00,
2013-09-12 05:40:00,51.0,46.7,30.20,ESE,105,2.0,4.0,85,0.00,,,0.00,0,LWC V2.00 B727,2013-09-12 11:40:00,
2013-09-12 05:50:00,50.8,46.5,30.20,ESE,105,1.0,0.0,85,0.00,,,0.00,0,LWC V2.00 B727,2013-09-12 11:50:00,
2013-09-12 06:00:00,50.7,46.4,30.20,ESE,105,0.0,2.0,85,0.00,,,0.00,0,LWC V2.00 B727,2013-09-12 12:00:00,
2013-09-12 06:10:00,50.7,46.4,30.19,ESE,105,0.0,2.0,50,0.00,,,0.00,0,LWC V2.00 B727,2013-09-12 12:10:00,
2013-09-12 06:20:00,50.7,46.4,30.20,ESE,105,0.0,2.0,50,0.00,,,0.00,0,LWC V2.00 B727,2013-09-12 12:20:00,
2013-09-12 06:30:00,50.7,46.4,30.19,ESE,105,0.0,0.0,50,0.00,,,0.00,0,LWC V2.00 B727,2013-09-12 12:30:00,
2013-09-12 06:40:00,50.7,46.4,30.19,ESE,105,0.0,0.0,50,0.00,,,0.00,0,LWC V2.00 B727,2013-09-12 12:40:00,
2013-09-12 06:50:00,50.7,46.4,30.19,ESE,105,0.0,0.0,50,0.00,,,0.00,0,LWC V2.00 B727,2013-09-12 12:50:00,
2013-09-12 07:00:00,50.7,46.4,30.19,ESE,105,0.0,0.0,50,0.00,,,0.00,0,LWC V2.00 B727,2013-09-12 13:00:00,
2013-09-12 07:10:00,50.7,46.4,30.19,ESE,105,0.0,0.0,50,0.00,,,0.00,0,LWC V2.00 B727,2013-09-12 13:10:00,
2013-09-12 07:20:00,50.7,46.4,30.19,ESE,105,0.0,0.0,50,0.00,,,0.00,0,LWC V2.00 B727,2013-09-12 13:20:00,
2013-09-12 07:30:00,50.7,46.4,30.19,ESE,105,0.0,0.0,50,0.00,,,0.00,0,LWC V2.00 B727,2013-09-12 13:30:00,
2013-09-12 07:40:00,50.7,46.4,30.19,ESE,105,0.0,0.0,50,0.00,,,0.00,0,LWC V2.00 B727,2013-09-12 13:40:00,
2013-09-12 07:50:00,51.9,47.5,30.19,ENE,61,0.0,0.0,85,0.00,,,0.00,49,LWC V2.00 B727,2013-09-12 13:50:00,
2013-09-12 08:00:00,52.4,48.0,30.19,East,90,0.0,2.0,85,0.00,,,0.00,60,LWC V2.00 B727,2013-09-12 14:00:00,
2013-09-12 08:10:00,52.8,48.4,30.20,East,93,1.0,0.0,85,0.00,,,0.00,58,LWC V2.00 B727,2013-09-12 14:10:00,
2013-09-12 08:20:00,53.3,49.2,30.20,East,94,0.0,0.0,86,0.00,,,0.00,70,LWC V2.00 B727,2013-09-12 14:20:00,
2013-09-12 08:30:00,54.0,50.2,30.20,East,94,0.0,2.0,87,0.00,,,0.00,111,LWC V2.00 B727,2013-09-12 14:30:00,
2013-09-12 08:40:00,54.5,50.7,30.20,East,95,0.0,0.0,87,0.00,,,0.00,134,LWC V2.00 B727,2013-09-12 14:40:00,
2013-09-12 08:50:00,55.1,51.3,30.21,East,96,0.0,0.0,87,0.00,,,0.00,172,LWC V2.00 B727,2013-09-12 14:50:00,
2013-09-12 09:00:00,55.8,51.7,30.21,East,96,0.0,0.0,86,0.00,,,0.00,148,LWC V2.00 B727,2013-09-12 15:00:00,
2013-09-12 09:10:00,56.6,52.1,30.21,East,96,0.0,0.0,85,0.00,,,0.00,121,LWC V2.00 B727,2013-09-12 15:10:00,
2013-09-12 09:20:00,57.0,52.2,30.21,East,96,0.0,0.0,84,0.00,,,0.00,125,LWC V2.00 B727,2013-09-12 15:20:00,
2013-09-12 09:30:00,57.6,52.1,30.21,East,95,0.0,2.0,82,0.00,,,0.00,151,LWC V2.00 B727,2013-09-12 15:30:00,
2013-09-12 09:40:00,58.0,52.5,30.21,East,95,0.0,0.0,82,0.00,,,0.00,151,LWC V2.00 B727,2013-09-12 15:40:00,
2013-09-12 09:50:00,58.5,53.0,30.21,East,95,0.0,1.0,82,0.00,,,0.00,142,LWC V2.00 B727,2013-09-12 15:50:00,
2013-09-12 10:00:00,59.0,52.8,30.21,East,95,0.0,1.0,80,0.00,,,0.00,153,LWC V2.00 B727,2013-09-12 16:00:00,
2013-09-12 10:10:00,59.0,52.5,30.21,East,95,0.0,0.0,79,0.00,,,0.00,109,LWC V2.00 B727,2013-09-12 16:10:00,
2013-09-12 10:20:00,59.0,52.1,30.21,East,95,0.0,1.0,78,0.00,,,0.00,125,LWC V2.00 B727,2013-09-12 16:20:00,
2013-09-12 10:30:00,59.2,52.3,30.21,East,95,0.0,1.0,78,0.00,,,0.00,116,LWC V2.00 B727,2013-09-12 16:30:00,
2013-09-12 10:40:00,59.3,52.4,30.21,East,95,0.0,0.0,78,0.00,,,0.00,111,LWC V2.00 B727,2013-09-12 16:40:00,
2013-09-12 10:50:00,59.7,53.9,30.21,East,97,0.0,0.0,81,0.00,,,0.00,155,LWC V2.00 B727,2013-09-12 16:50:00,
2013-09-12 11:00:00,59.9,54.4,30.21,East,99,0.0,0.0,82,0.00,,,0.00,155,LWC V2.00 B727,2013-09-12 17:00:00,
2013-09-12 11:10:00,59.9,54.4,30.21,East,99,0.0,1.0,82,0.06,,,0.00,192,LWC V2.00 B727,2013-09-12 17:10:00,
2013-09-12 11:20:00,59.9,54.4,30.21,East,99,0.0,0.0,82,0.06,,,0.00,167,LWC V2.00 B727,2013-09-12 17:20:00,
2013-09-12 11:30:00,59.9,54.7,30.20,East,99,0.0,0.0,83,0.00,,,0.00,174,LWC V2.00 B727,2013-09-12 17:30:00,
2013-09-12 11:40:00,60.0,55.5,30.20,East,99,0.0,0.0,85,0.00,,,0.00,171,LWC V2.00 B727,2013-09-12 17:40:00,
2013-09-12 11:50:00,60.1,55.6,30.19,East,99,0.0,0.0,85,0.00,,,0.00,236,LWC V2.00 B727,2013-09-12 17:50:00,
2013-09-12 12:00:00,60.2,56.0,30.19,East,99,0.0,2.0,86,0.00,,,0.00,304,LWC V2.00 B727,2013-09-12 18:00:00,
2013-09-12 12:10:00,60.3,56.1,30.19,ESE,105,0.0,3.0,86,0.00,,,0.00,236,LWC V2.00 B727,2013-09-12 18:10:00,
2013-09-12 12:20:00,60.5,56.6,30.18,ESE,112,1.0,3.0,87,0.00,,,0.00,244,LWC V2.00 B727,2013-09-12 18:20:00,
2013-09-12 12:30:00,60.6,56.7,30.18,SE,134,0.0,3.0,87,0.00,,,0.00,248,LWC V2.00 B727,2013-09-12 18:30:00,
2013-09-12 12:40:00,60.5,56.3,30.17,South,176,1.0,4.0,86,0.00,,,0.00,216,LWC V2.00 B727,2013-09-12 18:40:00,
2013-09-12 12:50:00,60.6,56.7,30.17,SSW,201,1.0,2.0,87,0.00,,,0.00,294,LWC V2.00 B727,2013-09-12 18:50:00,
2013-09-12 13:00:00,60.8,56.9,30.16,SSW,213,1.0,4.0,87,0.00,,,0.00,304,LWC V2.00 B727,2013-09-12 19:00:00,
2013-09-12 13:10:00,60.9,57.0,30.17,SW,230,1.0,4.0,87,0.00,,,0.00,192,LWC V2.00 B727,2013-09-12 19:10:00,
2013-09-12 13:20:00,60.7,56.2,30.17,SW,227,1.0,4.0,85,0.00,,,0.00,287,LWC V2.00 B727,2013-09-12 19:20:00,
2013-09-12 13:30:00,60.8,56.6,30.16,SW,231,0.0,2.0,86,0.00,,,0.00,211,LWC V2.00 B727,2013-09-12 19:30:00,
2013-09-12 13:40:00,60.8,56.6,30.16,SW,232,0.0,2.0,86,0.06,,,0.00,225,LWC V2.00 B727,2013-09-12 19:40:00,
2013-09-12 13:50:00,60.9,56.7,30.16,SW,233,0.0,0.0,86,0.06,,,0.00,260,LWC V2.00 B727,2013-09-12 19:50:00,
2013-09-12 14:00:00,61.0,56.8,30.16,SW,224,1.0,3.0,86,0.00,,,0.00,121,LWC V2.00 B727,2013-09-12 20:00:00,
2013-09-12 14:10:00,60.9,56.7,30.16,SW,226,0.0,1.0,86,0.00,,,0.00,137,LWC V2.00 B727,2013-09-12 20:10:00,
2013-09-12 14:20:00,60.2,56.0,30.15,WNW,285,2.0,4.0,86,0.00,,,0.00,158,LWC V2.00 B727,2013-09-12 20:20:00,
2013-09-12 14:30:00,60.0,55.8,30.15,WNW,294,0.0,0.0,86,0.00,,,0.00,174,LWC V2.00 B727,2013-09-12 20:30:00,
2013-09-12 14:40:00,60.0,56.4,30.14,WNW,296,0.0,0.0,88,0.00,,,0.00,204,LWC V2.00 B727,2013-09-12 20:40:00,
2013-09-12 14:50:00,60.0,56.4,30.14,NW,307,0.0,3.0,88,0.00,,,0.00,160,LWC V2.00 B727,2013-09-12 20:50:00,
2013-09-12 15:00:00,59.8,55.6,30.14,NNE,12,1.0,5.0,86,0.00,,,0.00,107,LWC V2.00 B727,2013-09-12 21:00:00,
2013-09-12 15:10:00,59.8,55.9,30.14,ENE,77,0.0,0.0,87,0.00,,,0.00,63,LWC V2.00 B727,2013-09-12 21:10:00,
2013-09-12 15:20:00,59.8,56.2,30.14,South,180,2.0,6.0,88,0.18,,,0.00,54,LWC V2.00 B727,2013-09-12 21:20:00,
2013-09-12 15:30:00,59.2,55.7,30.14,SW,236,1.0,3.0,88,0.39,,,0.00,35,LWC V2.00 B727,2013-09-12 21:30:00,
2013-09-12 15:40:00,58.9,55.3,30.13,West,276,1.0,5.0,88,0.07,,,0.00,104,LWC V2.00 B727,2013-09-12 21:40:00,
2013-09-12 15:50:00,58.6,55.4,30.13,WNW,282,0.0,1.0,89,0.04,,,0.00,72,LWC V2.00 B727,2013-09-12 21:50:00,
2013-09-12 16:00:00,58.7,55.8,30.13,WNW,283,0.0,0.0,90,0.00,,,0.00,90,LWC V2.00 B727,2013-09-12 22:00:00,
2013-09-12 16:10:00,59.0,56.1,30.13,WNW,284,0.0,3.0,90,0.00,,,0.00,137,LWC V2.00 B727,2013-09-12 22:10:00,
2013-09-12 16:20:00,59.0,56.1,30.14,WSW,249,1.0,2.0,90,0.00,,,0.00,98,LWC V2.00 B727,2013-09-12 22:20:00,
2013-09-12 16:30:00,58.9,56.0,30.14,SW,234,0.0,2.0,90,0.00,,,0.00,49,LWC V2.00 B727,2013-09-12 22:30:00,
2013-09-12 16:40:00,58.6,55.7,30.14,SW,231,0.0,0.0,90,0.00,,,0.00,25,LWC V2.00 B727,2013-09-12 22:40:00,
2013-09-12 16:50:00,58.5,55.6,30.14,SW,231,0.0,0.0,90,0.27,,,0.00,39,LWC V2.00 B727,2013-09-12 22:50:00,
2013-09-12 17:00:00,58.2,55.3,30.14,SW,231,0.0,0.0,90,0.09,,,0.00,104,LWC V2.00 B727,2013-09-12 23:00:00,
2013-09-12 17:10:00,58.2,55.3,30.15,SW,231,0.0,0.0,90,0.04,,,0.00,58,LWC V2.00 B727,2013-09-12 23:10:00,
2013-09-12 17:20:00,58.1,55.2,30.15,SW,231,0.0,1.0,90,0.00,,,0.00,39,LWC V2.00 B727,2013-09-12 23:20:00,
2013-09-12 17:30:00,57.9,55.3,30.15,SW,231,0.0,0.0,91,0.00,,,0.00,21,LWC V2.00 B727,2013-09-12 23:30:00,
2013-09-12 17:40:00,57.9,55.3,30.15,SW,231,0.0,0.0,91,0.00,,,0.00,32,LWC V2.00 B727,2013-09-12 23:40:00,
2013-09-12 17:50:00,57.8,55.2,30.14,SW,231,0.0,0.0,91,0.06,,,0.00,16,LWC V2.00 B727,2013-09-12 23:50:00,
2013-09-12 18:00:00,57.9,55.3,30.15,SW,225,0.0,1.0,91,0.00,,,0.00,43,LWC V2.00 B727,2013-09-13 00:00:00,
2013-09-12 18:10:00,57.6,54.7,30.15,SW,225,0.0,2.0,90,0.11,,,0.00,21,LWC V2.00 B727,2013-09-13 00:10:00,
2013-09-12 18:20:00,57.6,54.7,30.15,SW,225,0.0,2.0,90,0.11,,,0.00,21,LWC V2.00 B727,2013-09-13 00:20:00,
2013-09-12 18:30:00,57.6,54.7,30.15,SW,225,0.0,2.0,90,0.11,,,0.00,21,LWC V2.00 B727,2013-09-13 00:30:00,
2013-09-12 18:40:00,57.6,55.0,30.15,North,0,0.0,0.0,91,0.00,,,0.00,14,LWC V2.00 B727,2013-09-13 00:40:00,
2013-09-12 18:50:00,57.6,55.0,30.15,North,0,0.0,0.0,91,0.00,,,0.00,14,LWC V2.00 B727,2013-09-13 00:50:00,
2013-09-12 19:00:00,57.6,55.0,30.15,North,0,0.0,0.0,91,0.00,,,0.00,14,LWC V2.00 B727,2013-09-13 01:00:00,
2013-09-12 19:10:00,57.2,54.6,30.16,SW,225,0.0,3.0,91,0.00,,,0.00,4,LWC V2.00 B727,2013-09-13 01:10:00,
2013-09-12 19:20:00,57.2,54.6,30.16,SW,225,0.0,3.0,91,0.00,,,0.00,4,LWC V2.00 B727,2013-09-13 01:20:00,
2013-09-12 19:30:00,57.2,54.6,30.16,SW,225,0.0,3.0,91,0.00,,,0.00,4,LWC V2.00 B727,2013-09-13 01:30:00,
2013-09-12 19:40:00,56.6,54.0,30.16,SW,225,0.0,1.0,91,0.09,,,0.00,0,LWC V2.00 B727,2013-09-13 01:40:00,
2013-09-12 19:50:00,56.6,54.0,30.16,SW,225,0.0,1.0,91,0.09,,,0.00,0,LWC V2.00 B727,2013-09-13 01:50:00,
2013-09-12 20:00:00,56.6,54.0,30.16,SW,225,0.0,1.0,91,0.09,,,0.00,0,LWC V2.00 B727,2013-09-13 02:00:00,
2013-09-12 20:10:00,56.4,53.8,30.17,SW,225,0.0,1.0,91,0.00,,,0.00,0,LWC V2.00 B727,2013-09-13 02:10:00,
2013-09-12 20:20:00,56.4,53.8,30.17,SW,225,0.0,1.0,91,0.00,,,0.00,0,LWC V2.00 B727,2013-09-13 02:20:00,
2013-09-12 20:30:00,56.4,53.8,30.17,SW,225,0.0,1.0,91,0.00,,,0.00,0,LWC V2.00 B727,2013-09-13 02:30:00,
2013-09-12 20:40:00,56.2,53.9,30.17,SW,225,0.0,2.0,92,0.00,,,0.00,0,LWC V2.00 B727,2013-09-13 02:40:00,
2013-09-12 20:50:00,56.2,53.9,30.17,SW,225,0.0,2.0,92,0.00,,,0.00,0,LWC V2.00 B727,2013-09-13 02:50:00,
2013-09-12 21:00:00,56.2,53.9,30.17,SW,225,0.0,2.0,92,0.00,,,0.00,0,LWC V2.00 B727,2013-09-13 03:00:00,
2013-09-12 21:10:00,56.0,53.7,30.18,SW,225,0.0,1.0,92,0.00,,,0.00,0,LWC V2.00 B727,2013-09-13 03:10:00,
2013-09-12 21:20:00,56.0,53.7,30.18,SW,225,0.0,1.0,92,0.00,,,0.00,0,LWC V2.00 B727,2013-09-13 03:20:00,
2013-09-12 21:30:00,56.0,53.7,30.18,SW,225,0.0,1.0,92,0.00,,,0.00,0,LWC V2.00 B727,2013-09-13 03:30:00,
2013-09-12 21:40:00,56.0,53.7,30.18,SW,225,0.0,2.0,92,0.00,,,0.00,0,LWC V2.00 B727,2013-09-13 03:40:00,
2013-09-12 21:50:00,56.0,53.7,30.18,SW,225,0.0,2.0,92,0.00,,,0.00,0,LWC V2.00 B727,2013-09-13 03:50:00,
2013-09-12 22:00:00,56.0,53.7,30.18,SW,225,0.0,2.0,92,0.00,,,0.00,0,LWC V2.00 B727,2013-09-13 04:00:00,
2013-09-12 22:10:00,55.9,53.6,30.18,North,0,0.0,0.0,92,0.00,,,0.00,0,LWC V2.00 B727,2013-09-13 04:10:00,
2013-09-12 22:20:00,55.9,53.6,30.18,North,0,0.0,0.0,92,0.00,,,0.00,0,LWC V2.00 B727,2013-09-13 04:20:00,
2013-09-12 22:30:00,55.9,53.6,30.18,North,0,0.0,0.0,92,0.00,,,0.00,0,LWC V2.00 B727,2013-09-13 04:30:00,
2013-09-12 22:40:00,55.7,53.4,30.19,SW,225,0.0,1.0,92,0.00,,,0.00,0,LWC V2.00 B727,2013-09-13 04:40:00,
2013-09-12 22:50:00,55.7,53.4,30.19,SW,225,0.0,1.0,92,0.00,,,0.00,0,LWC V2.00 B727,2013-09-13 04:50:00,
2013-09-12 23:00:00,55.7,53.4,30.19,SW,225,0.0,1.0,92,0.00,,,0.00,0,LWC V2.00 B727,2013-09-13 05:00:00,
2013-09-12 23:10:00,55.8,53.8,30.19,North,0,0.0,0.0,93,0.00,,,0.00,0,LWC V2.00 B727,2013-09-13 05:10:00,
2013-09-12 23:20:00,55.8,53.8,30.19,North,0,0.0,0.0,93,0.00,,,0.00,0,LWC V2.00 B727,2013-09-13 05:20:00,
2013-09-12 23:30:00,55.8,53.8,30.19,North,0,0.0,0.0,93,0.00,,,0.00,0,LWC V2.00 B727,2013-09-13 05:30:00,
2013-09-12 23:40:00,55.7,53.7,30.18,SW,225,0.0,1.0,93,0.00,,,0.00,0,LWC V2.00 B727,2013-09-13 05:40:00,
2013-09-12 23:50:00,55.7,53.7,30.18,SW,225,0.0,1.0,93,0.00,,,0.00,0,LWC V2.00 B727,2013-09-13 05:50:00,